Map

Track Data

SID SEASON NUMBER BASIN SUBBASIN NAME ISO_TIME NATURE LAT LON WMO_WIND WMO_PRES WMO_AGENCY TRACK_TYPE DIST2LAND LANDFALL IFLAG USA_AGENCY USA_ATCF_ID USA_LAT USA_LON USA_RECORD USA_STATUS USA_WIND USA_PRES USA_SSHS USA_R34_NE USA_R34_SE USA_R34_SW USA_R34_NW USA_R50_NE USA_R50_SE USA_R50_SW USA_R50_NW USA_R64_NE USA_R64_SE USA_R64_SW USA_R64_NW USA_POCI USA_ROCI USA_RMW USA_EYE TOKYO_LAT TOKYO_LON TOKYO_GRADE TOKYO_WIND TOKYO_PRES TOKYO_R50_DIR TOKYO_R50_LONG TOKYO_R50_SHORT TOKYO_R30_DIR TOKYO_R30_LONG TOKYO_R30_SHORT TOKYO_LAND CMA_LAT CMA_LON CMA_CAT CMA_WIND CMA_PRES HKO_LAT HKO_LON HKO_CAT HKO_WIND HKO_PRES NEWDELHI_LAT NEWDELHI_LON NEWDELHI_GRADE NEWDELHI_WIND NEWDELHI_PRES NEWDELHI_CI NEWDELHI_DP NEWDELHI_POCI REUNION_LAT REUNION_LON REUNION_TYPE REUNION_WIND REUNION_PRES REUNION_TNUM REUNION_CI REUNION_RMW REUNION_R34_NE REUNION_R34_SE REUNION_R34_SW REUNION_R34_NW REUNION_R50_NE REUNION_R50_SE REUNION_R50_SW REUNION_R50_NW REUNION_R64_NE REUNION_R64_SE REUNION_R64_SW REUNION_R64_NW BOM_LAT BOM_LON BOM_TYPE BOM_WIND BOM_PRES BOM_TNUM BOM_CI BOM_RMW BOM_R34_NE BOM_R34_SE BOM_R34_SW BOM_R34_NW BOM_R50_NE BOM_R50_SE BOM_R50_SW BOM_R50_NW BOM_R64_NE BOM_R64_SE BOM_R64_SW BOM_R64_NW BOM_ROCI BOM_POCI BOM_EYE BOM_POS_METHOD BOM_PRES_METHOD NADI_LAT NADI_LON NADI_CAT NADI_WIND NADI_PRES WELLINGTON_LAT WELLINGTON_LON WELLINGTON_WIND WELLINGTON_PRES DS824_LAT DS824_LON DS824_STAGE DS824_WIND DS824_PRES TD9636_LAT TD9636_LON TD9636_STAGE TD9636_WIND TD9636_PRES TD9635_LAT TD9635_LON TD9635_WIND TD9635_PRES TD9635_ROCI NEUMANN_LAT NEUMANN_LON NEUMANN_CLASS NEUMANN_WIND NEUMANN_PRES MLC_LAT MLC_LON MLC_CLASS MLC_WIND MLC_PRES USA_GUST BOM_GUST BOM_GUST_PER REUNION_GUST REUNION_GUST_PER USA_SEAHGT USA_SEARAD_NE USA_SEARAD_SE USA_SEARAD_SW USA_SEARAD_NW STORM_SPEED STORM_DIR
1915273N17089 1915 38 NI BB NOT_NAMED 1915-09-30 00:00:00 TS 17.1000 88.7000 main 405 368 _________O____ -1 17.1000 88.7000 TC 34 8 298
1915273N17089 1915 38 NI BB NOT_NAMED 1915-09-30 03:00:00 TS 17.2852 88.3336 main 362 321 _________PO___ -1 17.3778 88.1504 TC 36 17.1000 88.7000 2 9 295
1915273N17089 1915 38 NI BB NOT_NAMED 1915-09-30 06:00:00 TS 17.4896 87.8280 main 316 284 _________OP___ -1 17.6000 87.6000 TC 39 17.3241 88.1701 2 11 290
1915273N17089 1915 38 NI BB NOT_NAMED 1915-09-30 09:00:00 TS 17.6433 87.2991 main 284 256 _________PP___ -1 17.7298 87.0498 TC 42 17.5280 87.6315 2 10 285
1915273N17089 1915 38 NI BB NOT_NAMED 1915-09-30 12:00:00 TS 17.7465 86.7886 main 256 211 _________OP___ -1 17.8000 86.5000 TC 45 17.6929 87.0771 2 10 281
1915273N17089 1915 38 NI BB NOT_NAMED 1915-09-30 15:00:00 TS 17.8437 86.2251 main 202 153 _________PO___ -1 17.8873 85.9502 TC 45 17.8000 86.5000 3 11 276
1915273N17089 1915 38 NI BB NOT_NAMED 1915-09-30 18:00:00 TS 17.8677 85.6503 main 153 115 _________OP___ -1 17.9000 85.4000 TC 45 17.8353 85.9006 3 11 267
1915273N17089 1915 38 NI BB NOT_NAMED 1915-09-30 21:00:00 TS 17.7929 85.0570 main 115 85 _________PP___ -1 17.7801 84.8047 TC 45 17.8056 85.3092 3 11 259
1915273N17089 1915 38 NI BB NOT_NAMED 1915-10-01 00:00:00 TS 17.6615 84.5316 main 79 74 _________OP___ -1 17.6000 84.3000 TC 45 17.7229 84.7633 3 9 253
1915273N17089 1915 38 NI BB NOT_NAMED 1915-10-01 03:00:00 TS 17.5286 84.1526 main 84 69 _________PO___ -1 17.4572 84.0052 TC 45 17.6000 84.3000 3 7 245
1915273N17089 1915 38 NI BB NOT_NAMED 1915-10-01 06:00:00 TS 17.3780 83.8799 main 69 61 _________OP___ -1 17.3000 83.8000 TC 45 17.4560 83.9597 3 6 236
1915273N17089 1915 38 NI BB NOT_NAMED 1915-10-01 09:00:00 TS 17.1895 83.6225 main 61 61 _________PP___ -1 17.1000 83.5425 TC 45 17.2790 83.7026 3 6 230
1915273N17089 1915 38 NI BB NOT_NAMED 1915-10-01 12:00:00 TS 16.9938 83.3971 main 70 70 _________OP___ -1 16.9000 83.3000 TC 45 17.0875 83.4942 3 5 228
1915273N17089 1915 38 NI BB NOT_NAMED 1915-10-01 15:00:00 TS 16.8212 83.2001 main 79 64 _________PO___ -1 16.7424 83.1001 TC 45 16.9000 83.3000 3 5 227
1915273N17089 1915 38 NI BB NOT_NAMED 1915-10-01 18:00:00 TS 16.6306 82.9958 main 67 54 _________OP___ -1 16.6000 82.9000 TC 45 16.6612 83.0916 3 6 225
1915273N17089 1915 38 NI BB NOT_NAMED 1915-10-01 21:00:00 TS 16.4234 82.7868 main 57 39 _________PP___ -1 16.4049 82.6873 TC 45 16.4420 82.8864 3 6 233
1915273N17089 1915 38 NI BB NOT_NAMED 1915-10-02 00:00:00 TS 16.3009 82.5315 main 39 24 _________OP___ -1 16.3000 82.4000 TC 45 16.3018 82.6631 3 6 260
1915273N17089 1915 38 NI BB NOT_NAMED 1915-10-02 03:00:00 TS 16.3226 82.1787 main 24 0 _________PO___ -1 16.3452 81.9574 TC 41 16.3000 82.4000 3 8 289
1915273N17089 1915 38 NI BB NOT_NAMED 1915-10-02 06:00:00 TS 16.5493 81.7644 main 0 0 _________OP___ -1 16.6000 81.5000 TC 37 16.4987 82.0289 3 10 311
1915273N17089 1915 38 NI BB NOT_NAMED 1915-10-02 09:00:00 TS 16.9741 81.3886 main 0 0 _________PP___ -1 17.1124 81.1553 TC 33 16.8358 81.6219 3 12 324
1915273N17089 1915 38 NI BB NOT_NAMED 1915-10-02 12:00:00 TS 17.4775 81.0644 main 0 0 _________OP___ -1 17.7000 80.9000 TC 30 17.2550 81.2288 3 11 329
1915273N17089 1915 38 NI BB NOT_NAMED 1915-10-02 15:00:00 TS 17.9112 80.8099 main 0 0 _________PO___ -1 18.1224 80.7197 TC 30 17.7000 80.9000 1 9 334
1915273N17089 1915 38 NI BB NOT_NAMED 1915-10-02 18:00:00 TS 18.2946 80.6452 main 0 0 _________OP___ -1 18.5000 80.6000 TC 30 18.0893 80.6904 1 8 341
1915273N17089 1915 38 NI BB NOT_NAMED 1915-10-02 21:00:00 TS 18.6998 80.5184 main 0 0 _________PP___ -1 18.9075 80.4850 TC 30 18.4920 80.5518 1 8 346
1915273N17089 1915 38 NI BB NOT_NAMED 1915-10-03 00:00:00 TS 19.0994 80.4312 main 0 0 _________OP___ -1 19.3000 80.4000 TC 30 18.8988 80.4624 1 8 350
1915273N17089 1915 38 NI BB NOT_NAMED 1915-10-03 03:00:00 TS 19.4750 80.3712 main 0 0 _________PO___ -1 19.6500 80.3424 TC 30 19.3000 80.4000 1 8 352
1915273N17089 1915 38 NI BB NOT_NAMED 1915-10-03 06:00:00 TS 19.8451 80.3121 main 0 0 _________OP___ -1 20.0000 80.3000 TC 30 19.6902 80.3241 1 8 352
1915273N17089 1915 38 NI BB NOT_NAMED 1915-10-03 09:00:00 TS 20.2362 80.2598 main 0 0 _________PP___ -1 20.4000 80.2500 TC 30 20.0724 80.2697 1 8 354
1915273N17089 1915 38 NI BB NOT_NAMED 1915-10-03 12:00:00 TS 20.6217 80.2152 main 0 0 _________OP___ -1 20.8000 80.2000 TC 30 20.4434 80.2304 1 8 354
1915273N17089 1915 38 NI BB NOT_NAMED 1915-10-03 15:00:00 TS 20.9825 80.1713 main 0 0 _________PO___ -1 21.1650 80.1425 TC 30 20.8000 80.2000 1 7 354
1915273N17089 1915 38 NI BB NOT_NAMED 1915-10-03 18:00:00 TS 21.3359 80.1278 main 0 0 _________OP___ -1 21.5000 80.1000 TC 30 21.1718 80.1557 1 7 354
1915273N17089 1915 38 NI BB NOT_NAMED 1915-10-03 21:00:00 TS 21.6775 80.1025 main 0 0 _________PP___ -1 21.8300 80.0850 TC 30 21.5250 80.1201 1 6 0
1915273N17089 1915 38 NI BB NOT_NAMED 1915-10-04 00:00:00 TS 21.9703 80.0997 main 0 0 _________OP___ -1 22.1000 80.1000 TC 30 21.8406 80.0994 1 5 2
1915273N17089 1915 38 NI BB NOT_NAMED 1915-10-04 03:00:00 TS 22.1900 80.1212 main 0 0 _________PO___ -1 22.2800 80.1425 TC 30 22.1000 80.1000 1 4 9
1915273N17089 1915 38 NI BB NOT_NAMED 1915-10-04 06:00:00 TS 22.3412 80.1622 main 0 0 _________OP___ -1 22.4000 80.2000 TC 30 22.2825 80.1243 1 3 16
1915273N17089 1915 38 NI BB NOT_NAMED 1915-10-04 09:00:00 TS 22.4587 80.2062 main 0 0 _________PP___ -1 22.5075 80.2425 TC 30 22.4100 80.1699 1 2 25
1915273N17089 1915 38 NI BB NOT_NAMED 1915-10-04 12:00:00 TS 22.5537 80.2653 main 0 0 _________OP___ -1 22.6000 80.3000 TC 30 22.5075 80.2306 1 2 34
1915273N17089 1915 38 NI BB NOT_NAMED 1915-10-04 15:00:00 TS 22.6463 80.3500 main 0 0 _________PO___ -1 22.6925 80.4000 TC 30 22.6000 80.3000 1 3 37
1915273N17089 1915 38 NI BB NOT_NAMED 1915-10-04 18:00:00 TS 22.7625 80.4359 main 0 0 _________OP___ -1 22.8000 80.5000 TC 30 22.7250 80.3719 1 3 30
1915273N17089 1915 38 NI BB NOT_NAMED 1915-10-04 21:00:00 TS 22.8963 80.5037 main 0 0 _________PP___ -1 22.9425 80.5575 TC 30 22.8500 80.4500 1 3 23
1915273N17089 1915 38 NI BB NOT_NAMED 1915-10-05 00:00:00 TS 23.0375 80.5641 main 0 0 _________OP___ -1 23.1000 80.6000 TC 30 22.9750 80.5281 1 3 22
1915273N17089 1915 38 NI BB NOT_NAMED 1915-10-05 03:00:00 TS 23.1787 80.6250 main 0 0 _________PO___ -1 23.2575 80.6500 TC 30 23.1000 80.6000 1 3 20
1915273N17089 1915 38 NI BB NOT_NAMED 1915-10-05 06:00:00 TS 23.3125 80.6766 main 0 0 _________OP___ -1 23.4000 80.7000 TC 30 23.2250 80.6532 1 3 20
1915273N17089 1915 38 NI BB NOT_NAMED 1915-10-05 09:00:00 TS 23.4250 80.7251 main 0 0 _________PP___ -1 23.5000 80.7500 TC 30 23.3500 80.7001 1 2 21
1915273N17089 1915 38 NI BB NOT_NAMED 1915-10-05 12:00:00 TS 23.5375 80.7735 main 0 0 _________OP___ -1 23.6000 80.8000 TC 30 23.4750 80.7470 1 3 20
1915273N17089 1915 38 NI BB NOT_NAMED 1915-10-05 15:00:00 TS 23.6750 80.8213 main 0 0 _________PO___ -1 23.7500 80.8425 TC 30 23.6000 80.8000 1 3 20
1915273N17089 1915 38 NI BB NOT_NAMED 1915-10-05 18:00:00 TS 23.8064 80.8799 main 0 0 _________OP___ -1 23.9000 80.9000 TC 30 23.7128 80.8598 1 3 28
1915273N17089 1915 38 NI BB NOT_NAMED 1915-10-05 21:00:00 TS 23.9100 80.9564 main 0 0 _________PP___ -1 23.9925 80.9851 TC 30 23.8274 80.9277 1 3 36
1915273N17089 1915 38 NI BB NOT_NAMED 1915-10-06 00:00:00 TS 24.0267 81.0534 main 0 0 _________OP___ -1 24.1000 81.1000 TC 30 23.9534 81.0068 1 3 35
1915273N17089 1915 38 NI BB NOT_NAMED 1915-10-06 03:00:00 TS 24.1925 81.1750 main 0 0 _________PO___ -1 24.2850 81.2499 TC 30 24.1000 81.1000 1 4 32
1915273N17089 1915 38 NI BB NOT_NAMED 1915-10-06 06:00:00 TS 24.3892 81.3053 main 0 0 _________OP___ -1 24.5000 81.4000 TC 30 24.2785 81.2106 1 5 29
1915273N17089 1915 38 NI BB NOT_NAMED 1915-10-06 09:00:00 TS 24.5887 81.4175 main 0 0 _________PP___ -1 24.7000 81.5001 TC 30 24.4775 81.3349 1 5 27
1915273N17089 1915 38 NI BB NOT_NAMED 1915-10-06 12:00:00 TS 24.7939 81.5334 main 0 0 _________OP___ -1 24.9000 81.6000 TC 30 24.6878 81.4668 1 5 30
1915273N17089 1915 38 NI BB NOT_NAMED 1915-10-06 15:00:00 TS 25.0000 81.6750 main 0 0 _________PO___ -1 25.1000 81.7500 TC 30 24.9000 81.6000 1 5 32
1915273N17089 1915 38 NI BB NOT_NAMED 1915-10-06 18:00:00 TS 25.1895 81.8025 main 0 0 _________OP___ -1 25.3000 81.9000 TC 30 25.1066 81.7293 1 4 30
1915273N17089 1915 38 NI BB NOT_NAMED 1915-10-06 21:00:00 TS 25.3845 81.9179 main 0 0 _________PP___ -1 25.5000 82.0125 TC 30 25.3075 81.8548 1 4 27
1915273N17089 1915 38 NI BB NOT_NAMED 1915-10-07 00:00:00 TS 25.5698 82.0186 main 0 0 _________OP___ -1 25.7000 82.1000 TC 30 25.5047 81.9779 1 4 28
1915273N17089 1915 38 NI BB NOT_NAMED 1915-10-07 03:00:00 NR 25.7000 82.1000 main 0 __________O___ -1 TC 25.7000 82.1000 1 3 28

About IBTrACS Database

This database is a web-friendly format of International Best Track Archive for Climate Stewardship (IBTrACS), a global best track data archive curated by NOAA dating back to 1842.

Updated: 2021-10-19